sensor_id;sensor_type;location;lat;lon;timestamp;P1;durP1;ratioP1;P2;durP2;ratioP2
5452;SDS011;2749;53.576;9.822;2023-04-15T00:00:36;7.33;;;5.90;;
5452;SDS011;2749;53.576;9.822;2023-04-15T00:03:02;6.30;;;4.90;;
5452;SDS011;2749;53.576;9.822;2023-04-15T00:05:29;5.67;;;4.97;;
5452;SDS011;2749;53.576;9.822;2023-04-15T00:07:55;5.60;;;4.93;;
5452;SDS011;2749;53.576;9.822;2023-04-15T00:10:22;5.83;;;4.47;;
5452;SDS011;2749;53.576;9.822;2023-04-15T00:12:48;7.20;;;6.00;;
5452;SDS011;2749;53.576;9.822;2023-04-15T00:15:15;6.03;;;4.23;;
5452;SDS011;2749;53.576;9.822;2023-04-15T00:17:41;6.30;;;5.00;;
5452;SDS011;2749;53.576;9.822;2023-04-15T00:20:07;5.60;;;4.60;;
5452;SDS011;2749;53.576;9.822;2023-04-15T00:22:33;5.97;;;5.30;;
5452;SDS011;2749;53.576;9.822;2023-04-15T00:24:59;4.50;;;4.10;;
5452;SDS011;2749;53.576;9.822;2023-04-15T00:27:25;6.13;;;5.50;;
5452;SDS011;2749;53.576;9.822;2023-04-15T00:29:51;5.57;;;5.00;;
5452;SDS011;2749;53.576;9.822;2023-04-15T00:32:17;5.23;;;4.73;;
5452;SDS011;2749;53.576;9.822;2023-04-15T00:34:44;5.57;;;5.00;;
5452;SDS011;2749;53.576;9.822;2023-04-15T00:37:10;9.30;;;5.37;;
5452;SDS011;2749;53.576;9.822;2023-04-15T00:39:36;7.43;;;5.90;;
5452;SDS011;2749;53.576;9.822;2023-04-15T00:42:05;10.73;;;6.40;;
5452;SDS011;2749;53.576;9.822;2023-04-15T00:44:31;7.27;;;5.80;;
5452;SDS011;2749;53.576;9.822;2023-04-15T00:46:59;7.70;;;5.93;;
5452;SDS011;2749;53.576;9.822;2023-04-15T00:49:26;7.53;;;6.20;;
5452;SDS011;2749;53.576;9.822;2023-04-15T00:51:52;6.63;;;5.10;;
5452;SDS011;2749;53.576;9.822;2023-04-15T00:54:18;7.83;;;6.73;;
5452;SDS011;2749;53.576;9.822;2023-04-15T00:56:45;8.67;;;7.03;;
5452;SDS011;2749;53.576;9.822;2023-04-15T00:59:12;10.40;;;7.33;;
5452;SDS011;2749;53.576;9.822;2023-04-15T01:01:39;11.40;;;6.90;;
5452;SDS011;2749;53.576;9.822;2023-04-15T01:04:05;10.30;;;7.83;;
5452;SDS011;2749;53.576;9.822;2023-04-15T01:06:32;9.97;;;8.20;;
5452;SDS011;2749;53.576;9.822;2023-04-15T01:08:58;10.50;;;8.60;;
5452;SDS011;2749;53.576;9.822;2023-04-15T01:11:24;11.63;;;9.40;;
5452;SDS011;2749;53.576;9.822;2023-04-15T01:13:51;14.70;;;9.73;;
5452;SDS011;2749;53.576;9.822;2023-04-15T01:16:17;9.23;;;8.20;;
5452;SDS011;2749;53.576;9.822;2023-04-15T01:18:43;12.53;;;9.27;;
5452;SDS011;2749;53.576;9.822;2023-04-15T01:21:10;12.90;;;9.33;;
5452;SDS011;2749;53.576;9.822;2023-04-15T01:23:36;11.47;;;8.83;;
5452;SDS011;2749;53.576;9.822;2023-04-15T01:26:03;13.50;;;10.10;;
5452;SDS011;2749;53.576;9.822;2023-04-15T01:28:29;11.30;;;9.23;;
5452;SDS011;2749;53.576;9.822;2023-04-15T01:31:11;13.40;;;10.50;;
5452;SDS011;2749;53.576;9.822;2023-04-15T01:33:37;18.93;;;11.30;;
5452;SDS011;2749;53.576;9.822;2023-04-15T01:36:04;12.23;;;9.90;;
5452;SDS011;2749;53.576;9.822;2023-04-15T01:38:32;16.20;;;10.63;;
5452;SDS011;2749;53.576;9.822;2023-04-15T01:40:58;13.90;;;10.40;;
5452;SDS011;2749;53.576;9.822;2023-04-15T01:43:27;14.90;;;10.57;;
5452;SDS011;2749;53.576;9.822;2023-04-15T01:45:53;16.80;;;10.00;;
5452;SDS011;2749;53.576;9.822;2023-04-15T01:48:20;12.37;;;10.43;;
5452;SDS011;2749;53.576;9.822;2023-04-15T01:50:46;13.03;;;9.40;;
5452;SDS011;2749;53.576;9.822;2023-04-15T01:53:12;18.30;;;11.07;;
5452;SDS011;2749;53.576;9.822;2023-04-15T01:55:38;12.90;;;9.43;;
5452;SDS011;2749;53.576;9.822;2023-04-15T01:58:04;12.30;;;10.70;;
5452;SDS011;2749;53.576;9.822;2023-04-15T02:00:30;11.60;;;9.47;;
5452;SDS011;2749;53.576;9.822;2023-04-15T02:02:56;11.97;;;9.60;;
5452;SDS011;2749;53.576;9.822;2023-04-15T02:05:23;14.50;;;9.90;;
5452;SDS011;2749;53.576;9.822;2023-04-15T02:07:49;12.37;;;10.00;;
5452;SDS011;2749;53.576;9.822;2023-04-15T02:10:15;11.53;;;9.47;;
5452;SDS011;2749;53.576;9.822;2023-04-15T02:12:41;13.20;;;9.00;;
5452;SDS011;2749;53.576;9.822;2023-04-15T02:15:07;11.53;;;8.70;;
5452;SDS011;2749;53.576;9.822;2023-04-15T02:17:34;14.60;;;10.93;;
5452;SDS011;2749;53.576;9.822;2023-04-15T02:20:00;14.63;;;10.40;;
5452;SDS011;2749;53.576;9.822;2023-04-15T02:22:28;17.40;;;9.80;;
5452;SDS011;2749;53.576;9.822;2023-04-15T02:24:54;12.00;;;8.80;;
5452;SDS011;2749;53.576;9.822;2023-04-15T02:27:20;12.77;;;8.37;;
5452;SDS011;2749;53.576;9.822;2023-04-15T02:29:46;14.60;;;9.87;;
5452;SDS011;2749;53.576;9.822;2023-04-15T02:32:14;12.13;;;9.00;;
5452;SDS011;2749;53.576;9.822;2023-04-15T02:34:41;12.10;;;10.27;;
5452;SDS011;2749;53.576;9.822;2023-04-15T02:37:07;10.90;;;8.97;;
5452;SDS011;2749;53.576;9.822;2023-04-15T02:39:33;14.97;;;10.47;;
5452;SDS011;2749;53.576;9.822;2023-04-15T02:41:59;11.43;;;9.10;;
5452;SDS011;2749;53.576;9.822;2023-04-15T02:44:25;15.87;;;10.80;;
5452;SDS011;2749;53.576;9.822;2023-04-15T02:46:52;11.93;;;9.57;;
5452;SDS011;2749;53.576;9.822;2023-04-15T02:49:19;12.80;;;8.37;;
5452;SDS011;2749;53.576;9.822;2023-04-15T02:51:45;13.33;;;9.73;;
5452;SDS011;2749;53.576;9.822;2023-04-15T02:54:13;13.80;;;9.83;;
5452;SDS011;2749;53.576;9.822;2023-04-15T02:56:39;12.87;;;9.33;;
5452;SDS011;2749;53.576;9.822;2023-04-15T02:59:05;15.30;;;10.27;;
5452;SDS011;2749;53.576;9.822;2023-04-15T03:01:31;11.67;;;9.50;;
5452;SDS011;2749;53.576;9.822;2023-04-15T03:03:57;19.63;;;10.07;;
5452;SDS011;2749;53.576;9.822;2023-04-15T03:06:23;13.00;;;10.67;;
5452;SDS011;2749;53.576;9.822;2023-04-15T03:08:49;13.23;;;10.17;;
5452;SDS011;2749;53.576;9.822;2023-04-15T03:11:15;15.50;;;10.43;;
5452;SDS011;2749;53.576;9.822;2023-04-15T03:13:42;15.50;;;11.00;;
5452;SDS011;2749;53.576;9.822;2023-04-15T03:16:08;16.77;;;11.83;;
5452;SDS011;2749;53.576;9.822;2023-04-15T03:18:35;15.10;;;10.47;;
5452;SDS011;2749;53.576;9.822;2023-04-15T03:21:01;18.93;;;12.63;;
5452;SDS011;2749;53.576;9.822;2023-04-15T03:23:27;17.63;;;11.40;;
5452;SDS011;2749;53.576;9.822;2023-04-15T03:25:53;16.30;;;11.97;;
5452;SDS011;2749;53.576;9.822;2023-04-15T03:28:21;17.73;;;11.63;;
5452;SDS011;2749;53.576;9.822;2023-04-15T03:30:47;18.77;;;12.60;;
5452;SDS011;2749;53.576;9.822;2023-04-15T03:33:12;18.60;;;13.83;;
5452;SDS011;2749;53.576;9.822;2023-04-15T03:35:38;17.67;;;11.83;;
5452;SDS011;2749;53.576;9.822;2023-04-15T03:38:04;20.13;;;14.67;;
5452;SDS011;2749;53.576;9.822;2023-04-15T03:40:31;19.00;;;13.63;;
5452;SDS011;2749;53.576;9.822;2023-04-15T03:42:57;19.30;;;13.90;;
5452;SDS011;2749;53.576;9.822;2023-04-15T03:45:22;22.03;;;13.73;;
5452;SDS011;2749;53.576;9.822;2023-04-15T03:47:48;25.57;;;15.60;;
5452;SDS011;2749;53.576;9.822;2023-04-15T03:50:14;21.67;;;13.17;;
5452;SDS011;2749;53.576;9.822;2023-04-15T03:52:40;23.90;;;16.10;;
5452;SDS011;2749;53.576;9.822;2023-04-15T03:55:06;22.97;;;13.60;;
5452;SDS011;2749;53.576;9.822;2023-04-15T03:57:33;23.47;;;15.60;;
5452;SDS011;2749;53.576;9.822;2023-04-15T04:00:06;21.07;;;13.83;;
5452;SDS011;2749;53.576;9.822;2023-04-15T04:02:33;26.77;;;15.97;;
5452;SDS011;2749;53.576;9.822;2023-04-15T04:04:59;21.90;;;13.17;;
5452;SDS011;2749;53.576;9.822;2023-04-15T04:07:25;26.57;;;16.80;;
5452;SDS011;2749;53.576;9.822;2023-04-15T04:09:51;24.33;;;16.23;;
5452;SDS011;2749;53.576;9.822;2023-04-15T04:12:17;21.40;;;14.00;;
5452;SDS011;2749;53.576;9.822;2023-04-15T04:14:43;24.33;;;14.67;;
5452;SDS011;2749;53.576;9.822;2023-04-15T04:17:09;29.87;;;17.50;;
5452;SDS011;2749;53.576;9.822;2023-04-15T04:19:35;22.23;;;16.10;;
5452;SDS011;2749;53.576;9.822;2023-04-15T04:22:01;23.10;;;14.90;;
5452;SDS011;2749;53.576;9.822;2023-04-15T04:24:27;25.47;;;15.97;;
5452;SDS011;2749;53.576;9.822;2023-04-15T04:26:53;28.83;;;17.27;;
5452;SDS011;2749;53.576;9.822;2023-04-15T04:29:21;32.80;;;16.40;;
5452;SDS011;2749;53.576;9.822;2023-04-15T04:31:47;29.83;;;17.37;;
5452;SDS011;2749;53.576;9.822;2023-04-15T04:34:13;27.70;;;16.43;;
5452;SDS011;2749;53.576;9.822;2023-04-15T04:36:39;29.63;;;18.97;;
5452;SDS011;2749;53.576;9.822;2023-04-15T04:39:05;34.00;;;18.90;;
5452;SDS011;2749;53.576;9.822;2023-04-15T04:41:31;31.43;;;16.37;;
5452;SDS011;2749;53.576;9.822;2023-04-15T04:43:57;31.83;;;18.27;;
5452;SDS011;2749;53.576;9.822;2023-04-15T04:46:24;27.73;;;18.10;;
5452;SDS011;2749;53.576;9.822;2023-04-15T04:48:49;33.77;;;18.70;;
5452;SDS011;2749;53.576;9.822;2023-04-15T04:51:15;29.20;;;18.40;;
5452;SDS011;2749;53.576;9.822;2023-04-15T04:53:42;39.00;;;20.77;;
5452;SDS011;2749;53.576;9.822;2023-04-15T04:56:08;34.27;;;19.57;;
5452;SDS011;2749;53.576;9.822;2023-04-15T04:58:34;36.40;;;19.53;;
5452;SDS011;2749;53.576;9.822;2023-04-15T05:01:00;32.97;;;21.27;;
5452;SDS011;2749;53.576;9.822;2023-04-15T05:03:26;37.37;;;21.10;;
5452;SDS011;2749;53.576;9.822;2023-04-15T05:05:52;35.77;;;19.80;;
5452;SDS011;2749;53.576;9.822;2023-04-15T05:08:19;41.00;;;21.90;;
5452;SDS011;2749;53.576;9.822;2023-04-15T05:10:45;34.43;;;19.10;;
5452;SDS011;2749;53.576;9.822;2023-04-15T05:13:11;43.67;;;22.90;;
5452;SDS011;2749;53.576;9.822;2023-04-15T05:15:37;43.40;;;23.87;;
5452;SDS011;2749;53.576;9.822;2023-04-15T05:18:05;44.87;;;23.60;;
5452;SDS011;2749;53.576;9.822;2023-04-15T05:20:31;47.57;;;24.90;;
5452;SDS011;2749;53.576;9.822;2023-04-15T05:22:57;44.73;;;25.83;;
5452;SDS011;2749;53.576;9.822;2023-04-15T05:25:23;42.13;;;22.00;;
5452;SDS011;2749;53.576;9.822;2023-04-15T05:27:49;37.83;;;23.13;;
5452;SDS011;2749;53.576;9.822;2023-04-15T05:30:15;47.23;;;25.73;;
5452;SDS011;2749;53.576;9.822;2023-04-15T05:32:41;45.30;;;24.40;;
5452;SDS011;2749;53.576;9.822;2023-04-15T05:35:07;50.90;;;26.13;;
5452;SDS011;2749;53.576;9.822;2023-04-15T05:37:33;47.80;;;25.70;;
5452;SDS011;2749;53.576;9.822;2023-04-15T05:39:59;43.53;;;26.20;;
5452;SDS011;2749;53.576;9.822;2023-04-15T05:42:25;48.87;;;27.23;;
5452;SDS011;2749;53.576;9.822;2023-04-15T05:44:51;54.00;;;25.37;;
5452;SDS011;2749;53.576;9.822;2023-04-15T05:47:17;40.80;;;25.43;;
5452;SDS011;2749;53.576;9.822;2023-04-15T05:49:43;48.63;;;24.50;;
5452;SDS011;2749;53.576;9.822;2023-04-15T05:52:09;43.63;;;25.70;;
5452;SDS011;2749;53.576;9.822;2023-04-15T05:54:35;40.70;;;24.43;;
5452;SDS011;2749;53.576;9.822;2023-04-15T05:57:01;48.97;;;24.00;;
5452;SDS011;2749;53.576;9.822;2023-04-15T05:59:27;49.33;;;26.97;;
5452;SDS011;2749;53.576;9.822;2023-04-15T06:01:53;51.87;;;27.37;;
5452;SDS011;2749;53.576;9.822;2023-04-15T06:04:22;48.93;;;25.60;;
5452;SDS011;2749;53.576;9.822;2023-04-15T06:06:48;50.17;;;25.40;;
5452;SDS011;2749;53.576;9.822;2023-04-15T06:09:14;58.70;;;30.17;;
5452;SDS011;2749;53.576;9.822;2023-04-15T06:11:40;61.57;;;30.93;;
5452;SDS011;2749;53.576;9.822;2023-04-15T06:14:06;54.97;;;27.00;;
5452;SDS011;2749;53.576;9.822;2023-04-15T06:16:32;55.97;;;31.40;;
5452;SDS011;2749;53.576;9.822;2023-04-15T06:19:00;57.57;;;31.30;;
5452;SDS011;2749;53.576;9.822;2023-04-15T06:21:26;52.80;;;27.60;;
5452;SDS011;2749;53.576;9.822;2023-04-15T06:23:52;53.73;;;30.90;;
5452;SDS011;2749;53.576;9.822;2023-04-15T06:26:18;54.83;;;29.13;;
5452;SDS011;2749;53.576;9.822;2023-04-15T06:28:44;57.47;;;31.77;;
5452;SDS011;2749;53.576;9.822;2023-04-15T06:31:10;61.30;;;33.30;;
5452;SDS011;2749;53.576;9.822;2023-04-15T06:33:36;60.77;;;31.73;;
5452;SDS011;2749;53.576;9.822;2023-04-15T06:36:01;66.50;;;33.97;;
5452;SDS011;2749;53.576;9.822;2023-04-15T06:38:27;62.67;;;31.40;;
5452;SDS011;2749;53.576;9.822;2023-04-15T06:40:53;75.80;;;35.23;;
5452;SDS011;2749;53.576;9.822;2023-04-15T06:43:19;62.60;;;34.33;;
5452;SDS011;2749;53.576;9.822;2023-04-15T06:45:45;87.07;;;37.60;;
5452;SDS011;2749;53.576;9.822;2023-04-15T06:48:11;79.27;;;38.33;;
5452;SDS011;2749;53.576;9.822;2023-04-15T06:50:37;76.70;;;37.07;;
5452;SDS011;2749;53.576;9.822;2023-04-15T06:53:03;81.53;;;40.17;;
5452;SDS011;2749;53.576;9.822;2023-04-15T06:55:29;75.50;;;37.70;;
5452;SDS011;2749;53.576;9.822;2023-04-15T06:57:56;71.90;;;38.73;;
5452;SDS011;2749;53.576;9.822;2023-04-15T07:00:22;78.20;;;40.50;;
5452;SDS011;2749;53.576;9.822;2023-04-15T07:02:48;80.70;;;39.03;;
5452;SDS011;2749;53.576;9.822;2023-04-15T07:05:14;80.13;;;41.43;;
5452;SDS011;2749;53.576;9.822;2023-04-15T07:07:39;83.83;;;43.70;;
5452;SDS011;2749;53.576;9.822;2023-04-15T07:10:06;75.17;;;41.03;;
5452;SDS011;2749;53.576;9.822;2023-04-15T07:12:32;82.43;;;40.60;;
5452;SDS011;2749;53.576;9.822;2023-04-15T07:14:59;82.47;;;39.97;;
5452;SDS011;2749;53.576;9.822;2023-04-15T07:17:25;88.87;;;43.03;;
5452;SDS011;2749;53.576;9.822;2023-04-15T07:19:51;94.53;;;43.70;;
5452;SDS011;2749;53.576;9.822;2023-04-15T07:22:17;81.40;;;41.23;;
5452;SDS011;2749;53.576;9.822;2023-04-15T07:24:43;103.77;;;48.10;;
5452;SDS011;2749;53.576;9.822;2023-04-15T07:27:08;83.33;;;40.83;;
5452;SDS011;2749;53.576;9.822;2023-04-15T07:29:34;88.47;;;44.13;;
5452;SDS011;2749;53.576;9.822;2023-04-15T07:32:00;90.17;;;46.00;;
5452;SDS011;2749;53.576;9.822;2023-04-15T07:34:26;81.83;;;47.63;;
5452;SDS011;2749;53.576;9.822;2023-04-15T07:36:52;95.57;;;44.50;;
5452;SDS011;2749;53.576;9.822;2023-04-15T07:39:18;87.13;;;47.60;;
5452;SDS011;2749;53.576;9.822;2023-04-15T07:41:44;83.80;;;42.40;;
5452;SDS011;2749;53.576;9.822;2023-04-15T07:44:11;86.93;;;43.50;;
5452;SDS011;2749;53.576;9.822;2023-04-15T07:46:37;87.53;;;45.80;;
5452;SDS011;2749;53.576;9.822;2023-04-15T07:49:03;89.80;;;46.20;;
5452;SDS011;2749;53.576;9.822;2023-04-15T07:51:29;90.93;;;45.43;;
5452;SDS011;2749;53.576;9.822;2023-04-15T07:53:56;93.70;;;46.33;;
5452;SDS011;2749;53.576;9.822;2023-04-15T07:56:22;94.50;;;45.73;;
5452;SDS011;2749;53.576;9.822;2023-04-15T07:58:47;91.37;;;49.50;;
5452;SDS011;2749;53.576;9.822;2023-04-15T08:01:13;82.13;;;46.37;;
5452;SDS011;2749;53.576;9.822;2023-04-15T08:03:40;100.93;;;47.30;;
5452;SDS011;2749;53.576;9.822;2023-04-15T08:06:05;105.30;;;47.77;;
5452;SDS011;2749;53.576;9.822;2023-04-15T08:08:31;101.73;;;48.60;;
5452;SDS011;2749;53.576;9.822;2023-04-15T08:10:58;91.97;;;47.57;;
5452;SDS011;2749;53.576;9.822;2023-04-15T08:13:24;86.70;;;45.07;;
5452;SDS011;2749;53.576;9.822;2023-04-15T08:15:52;92.50;;;47.93;;
5452;SDS011;2749;53.576;9.822;2023-04-15T08:18:36;95.13;;;47.33;;
5452;SDS011;2749;53.576;9.822;2023-04-15T08:21:02;99.03;;;47.60;;
5452;SDS011;2749;53.576;9.822;2023-04-15T08:23:28;93.27;;;47.10;;
5452;SDS011;2749;53.576;9.822;2023-04-15T08:25:54;100.13;;;45.57;;
5452;SDS011;2749;53.576;9.822;2023-04-15T08:28:21;91.00;;;49.17;;
5452;SDS011;2749;53.576;9.822;2023-04-15T08:30:47;95.40;;;48.40;;
5452;SDS011;2749;53.576;9.822;2023-04-15T08:33:13;87.23;;;48.50;;
5452;SDS011;2749;53.576;9.822;2023-04-15T08:35:38;89.43;;;49.93;;
5452;SDS011;2749;53.576;9.822;2023-04-15T08:38:04;88.10;;;45.90;;
5452;SDS011;2749;53.576;9.822;2023-04-15T08:40:33;85.60;;;49.40;;
5452;SDS011;2749;53.576;9.822;2023-04-15T08:43:00;86.37;;;48.57;;
5452;SDS011;2749;53.576;9.822;2023-04-15T08:45:27;79.83;;;47.70;;
5452;SDS011;2749;53.576;9.822;2023-04-15T08:47:53;98.97;;;50.57;;
5452;SDS011;2749;53.576;9.822;2023-04-15T08:50:20;92.03;;;47.80;;
5452;SDS011;2749;53.576;9.822;2023-04-15T08:52:47;82.30;;;47.07;;
5452;SDS011;2749;53.576;9.822;2023-04-15T08:55:13;88.77;;;44.97;;
5452;SDS011;2749;53.576;9.822;2023-04-15T08:57:40;91.27;;;44.97;;
5452;SDS011;2749;53.576;9.822;2023-04-15T09:00:06;76.23;;;43.73;;
5452;SDS011;2749;53.576;9.822;2023-04-15T09:02:33;87.10;;;47.40;;
5452;SDS011;2749;53.576;9.822;2023-04-15T09:04:59;70.23;;;42.40;;
5452;SDS011;2749;53.576;9.822;2023-04-15T09:07:26;84.33;;;44.90;;
5452;SDS011;2749;53.576;9.822;2023-04-15T09:09:52;66.57;;;41.23;;
5452;SDS011;2749;53.576;9.822;2023-04-15T09:12:18;72.37;;;43.27;;
5452;SDS011;2749;53.576;9.822;2023-04-15T09:14:47;74.27;;;42.07;;
5452;SDS011;2749;53.576;9.822;2023-04-15T09:17:13;84.90;;;45.97;;
5452;SDS011;2749;53.576;9.822;2023-04-15T09:19:43;75.83;;;43.40;;
5452;SDS011;2749;53.576;9.822;2023-04-15T09:22:09;70.50;;;41.17;;
5452;SDS011;2749;53.576;9.822;2023-04-15T09:24:36;66.10;;;40.20;;
5452;SDS011;2749;53.576;9.822;2023-04-15T09:27:03;71.03;;;41.67;;
5452;SDS011;2749;53.576;9.822;2023-04-15T09:29:29;68.03;;;39.90;;
5452;SDS011;2749;53.576;9.822;2023-04-15T09:31:55;62.03;;;39.70;;
5452;SDS011;2749;53.576;9.822;2023-04-15T09:34:21;76.73;;;41.03;;
5452;SDS011;2749;53.576;9.822;2023-04-15T09:36:59;78.57;;;45.73;;
5452;SDS011;2749;53.576;9.822;2023-04-15T09:39:25;67.00;;;40.30;;
5452;SDS011;2749;53.576;9.822;2023-04-15T09:42:02;74.07;;;38.70;;
5452;SDS011;2749;53.576;9.822;2023-04-15T09:44:28;62.17;;;39.93;;
5452;SDS011;2749;53.576;9.822;2023-04-15T09:46:55;74.13;;;39.80;;
5452;SDS011;2749;53.576;9.822;2023-04-15T09:49:20;72.97;;;38.77;;
5452;SDS011;2749;53.576;9.822;2023-04-15T09:51:47;65.30;;;40.40;;
5452;SDS011;2749;53.576;9.822;2023-04-15T09:54:17;61.47;;;39.37;;
5452;SDS011;2749;53.576;9.822;2023-04-15T09:56:44;62.47;;;39.60;;
5452;SDS011;2749;53.576;9.822;2023-04-15T09:59:10;62.07;;;38.57;;
5452;SDS011;2749;53.576;9.822;2023-04-15T10:01:36;50.87;;;35.03;;
5452;SDS011;2749;53.576;9.822;2023-04-15T10:04:03;59.80;;;35.83;;
5452;SDS011;2749;53.576;9.822;2023-04-15T10:06:29;63.60;;;39.00;;
5452;SDS011;2749;53.576;9.822;2023-04-15T10:08:56;57.33;;;36.20;;
5452;SDS011;2749;53.576;9.822;2023-04-15T10:11:22;57.13;;;36.63;;
5452;SDS011;2749;53.576;9.822;2023-04-15T10:13:49;52.60;;;34.40;;
5452;SDS011;2749;53.576;9.822;2023-04-15T10:16:16;56.07;;;36.23;;
5452;SDS011;2749;53.576;9.822;2023-04-15T10:18:44;48.70;;;33.10;;
5452;SDS011;2749;53.576;9.822;2023-04-15T10:21:10;53.93;;;34.80;;
5452;SDS011;2749;53.576;9.822;2023-04-15T10:23:38;52.47;;;34.50;;
5452;SDS011;2749;53.576;9.822;2023-04-15T10:26:04;53.57;;;33.10;;
5452;SDS011;2749;53.576;9.822;2023-04-15T10:28:30;55.03;;;32.43;;
5452;SDS011;2749;53.576;9.822;2023-04-15T10:30:56;47.73;;;31.77;;
5452;SDS011;2749;53.576;9.822;2023-04-15T10:33:23;42.87;;;29.27;;
5452;SDS011;2749;53.576;9.822;2023-04-15T10:35:50;40.70;;;30.00;;
5452;SDS011;2749;53.576;9.822;2023-04-15T10:41:11;44.50;;;30.60;;
5452;SDS011;2749;53.576;9.822;2023-04-15T10:43:37;46.83;;;30.50;;
5452;SDS011;2749;53.576;9.822;2023-04-15T10:46:06;41.43;;;30.03;;
5452;SDS011;2749;53.576;9.822;2023-04-15T10:48:32;37.60;;;29.63;;
5452;SDS011;2749;53.576;9.822;2023-04-15T10:50:59;39.10;;;28.07;;
5452;SDS011;2749;53.576;9.822;2023-04-15T10:53:29;44.47;;;28.87;;
5452;SDS011;2749;53.576;9.822;2023-04-15T10:55:56;32.10;;;25.63;;
5452;SDS011;2749;53.576;9.822;2023-04-15T10:58:23;42.67;;;27.90;;
5452;SDS011;2749;53.576;9.822;2023-04-15T11:00:50;34.07;;;25.10;;
5452;SDS011;2749;53.576;9.822;2023-04-15T11:03:16;31.43;;;24.77;;
5452;SDS011;2749;53.576;9.822;2023-04-15T11:05:58;38.00;;;26.73;;
5452;SDS011;2749;53.576;9.822;2023-04-15T11:11:10;29.90;;;24.83;;
5452;SDS011;2749;53.576;9.822;2023-04-15T11:13:36;31.50;;;23.90;;
5452;SDS011;2749;53.576;9.822;2023-04-15T11:16:12;25.77;;;21.10;;
5452;SDS011;2749;53.576;9.822;2023-04-15T11:18:38;26.23;;;22.10;;
5452;SDS011;2749;53.576;9.822;2023-04-15T11:21:05;26.23;;;20.57;;
5452;SDS011;2749;53.576;9.822;2023-04-15T11:23:38;23.83;;;20.63;;
5452;SDS011;2749;53.576;9.822;2023-04-15T11:26:06;22.23;;;19.70;;
5452;SDS011;2749;53.576;9.822;2023-04-15T11:28:33;22.57;;;19.87;;
5452;SDS011;2749;53.576;9.822;2023-04-15T11:33:32;23.77;;;19.60;;
5452;SDS011;2749;53.576;9.822;2023-04-15T11:35:59;20.60;;;18.43;;
5452;SDS011;2749;53.576;9.822;2023-04-15T11:38:25;22.53;;;18.97;;
5452;SDS011;2749;53.576;9.822;2023-04-15T11:40:52;19.50;;;16.00;;
5452;SDS011;2749;53.576;9.822;2023-04-15T11:43:18;18.50;;;16.23;;
5452;SDS011;2749;53.576;9.822;2023-04-15T11:48:24;15.17;;;13.30;;
5452;SDS011;2749;53.576;9.822;2023-04-15T11:51:08;14.00;;;11.20;;
5452;SDS011;2749;53.576;9.822;2023-04-15T11:53:52;13.27;;;11.13;;
5452;SDS011;2749;53.576;9.822;2023-04-15T11:56:20;15.00;;;11.70;;
5452;SDS011;2749;53.576;9.822;2023-04-15T11:58:47;14.17;;;12.67;;
5452;SDS011;2749;53.576;9.822;2023-04-15T12:01:14;13.30;;;10.50;;
5452;SDS011;2749;53.576;9.822;2023-04-15T12:03:41;11.73;;;10.47;;
5452;SDS011;2749;53.576;9.822;2023-04-15T12:06:11;12.43;;;10.83;;
5452;SDS011;2749;53.576;9.822;2023-04-15T12:11:34;13.90;;;9.30;;
5452;SDS011;2749;53.576;9.822;2023-04-15T12:16:47;12.17;;;11.00;;
5452;SDS011;2749;53.576;9.822;2023-04-15T12:19:14;12.90;;;11.57;;
5452;SDS011;2749;53.576;9.822;2023-04-15T12:21:43;9.77;;;8.50;;
5452;SDS011;2749;53.576;9.822;2023-04-15T12:24:09;10.20;;;9.23;;
5452;SDS011;2749;53.576;9.822;2023-04-15T12:26:40;12.23;;;10.43;;
5452;SDS011;2749;53.576;9.822;2023-04-15T12:29:07;13.07;;;10.63;;
5452;SDS011;2749;53.576;9.822;2023-04-15T12:31:34;10.73;;;9.07;;
5452;SDS011;2749;53.576;9.822;2023-04-15T12:34:01;9.63;;;8.83;;
5452;SDS011;2749;53.576;9.822;2023-04-15T12:36:27;13.30;;;9.30;;
5452;SDS011;2749;53.576;9.822;2023-04-15T12:38:55;10.53;;;9.50;;
5452;SDS011;2749;53.576;9.822;2023-04-15T12:41:21;12.10;;;10.80;;
5452;SDS011;2749;53.576;9.822;2023-04-15T12:43:48;12.10;;;10.60;;
5452;SDS011;2749;53.576;9.822;2023-04-15T12:46:14;12.40;;;11.10;;
5452;SDS011;2749;53.576;9.822;2023-04-15T12:48:40;10.70;;;9.70;;
5452;SDS011;2749;53.576;9.822;2023-04-15T12:51:06;18.50;;;10.50;;
5452;SDS011;2749;53.576;9.822;2023-04-15T12:53:32;13.00;;;10.63;;
5452;SDS011;2749;53.576;9.822;2023-04-15T12:55:58;14.80;;;9.73;;
5452;SDS011;2749;53.576;9.822;2023-04-15T12:58:25;11.50;;;9.90;;
5452;SDS011;2749;53.576;9.822;2023-04-15T13:00:51;10.97;;;9.90;;
5452;SDS011;2749;53.576;9.822;2023-04-15T13:03:17;12.70;;;11.57;;
5452;SDS011;2749;53.576;9.822;2023-04-15T13:05:43;14.33;;;10.93;;
5452;SDS011;2749;53.576;9.822;2023-04-15T13:08:09;15.63;;;10.43;;
5452;SDS011;2749;53.576;9.822;2023-04-15T13:10:35;11.83;;;10.73;;
5452;SDS011;2749;53.576;9.822;2023-04-15T13:13:02;9.80;;;8.80;;
5452;SDS011;2749;53.576;9.822;2023-04-15T13:15:28;13.20;;;10.80;;
5452;SDS011;2749;53.576;9.822;2023-04-15T13:17:54;14.10;;;10.70;;
5452;SDS011;2749;53.576;9.822;2023-04-15T13:20:20;10.93;;;9.63;;
5452;SDS011;2749;53.576;9.822;2023-04-15T13:22:46;12.17;;;9.60;;
5452;SDS011;2749;53.576;9.822;2023-04-15T13:25:12;12.23;;;11.00;;
5452;SDS011;2749;53.576;9.822;2023-04-15T13:27:38;12.90;;;11.60;;
5452;SDS011;2749;53.576;9.822;2023-04-15T13:30:04;12.20;;;11.00;;
5452;SDS011;2749;53.576;9.822;2023-04-15T13:32:31;11.87;;;10.67;;
5452;SDS011;2749;53.576;9.822;2023-04-15T13:34:57;12.47;;;11.27;;
5452;SDS011;2749;53.576;9.822;2023-04-15T13:37:27;11.40;;;10.30;;
5452;SDS011;2749;53.576;9.822;2023-04-15T13:39:53;14.47;;;11.43;;
5452;SDS011;2749;53.576;9.822;2023-04-15T13:42:20;12.43;;;11.23;;
5452;SDS011;2749;53.576;9.822;2023-04-15T13:44:46;15.87;;;10.80;;
5452;SDS011;2749;53.576;9.822;2023-04-15T13:47:12;11.40;;;10.30;;
5452;SDS011;2749;53.576;9.822;2023-04-15T13:49:39;11.93;;;10.07;;
5452;SDS011;2749;53.576;9.822;2023-04-15T13:52:05;10.40;;;9.40;;
5452;SDS011;2749;53.576;9.822;2023-04-15T13:54:31;10.90;;;9.80;;
5452;SDS011;2749;53.576;9.822;2023-04-15T13:56:57;9.90;;;8.97;;
5452;SDS011;2749;53.576;9.822;2023-04-15T13:59:23;11.10;;;9.97;;
5452;SDS011;2749;53.576;9.822;2023-04-15T14:01:49;9.53;;;8.63;;
5452;SDS011;2749;53.576;9.822;2023-04-15T14:04:15;9.43;;;8.53;;
5452;SDS011;2749;53.576;9.822;2023-04-15T14:06:41;10.10;;;9.03;;
5452;SDS011;2749;53.576;9.822;2023-04-15T14:09:07;9.53;;;8.63;;
5452;SDS011;2749;53.576;9.822;2023-04-15T14:11:33;10.13;;;9.17;;
5452;SDS011;2749;53.576;9.822;2023-04-15T14:14:00;9.57;;;8.10;;
5452;SDS011;2749;53.576;9.822;2023-04-15T14:16:26;9.10;;;8.13;;
5452;SDS011;2749;53.576;9.822;2023-04-15T14:18:52;9.17;;;7.87;;
5452;SDS011;2749;53.576;9.822;2023-04-15T14:21:18;10.43;;;8.67;;
5452;SDS011;2749;53.576;9.822;2023-04-15T14:23:44;10.90;;;9.13;;
5452;SDS011;2749;53.576;9.822;2023-04-15T14:26:10;9.60;;;8.70;;
5452;SDS011;2749;53.576;9.822;2023-04-15T14:28:37;10.23;;;9.10;;
5452;SDS011;2749;53.576;9.822;2023-04-15T14:31:03;10.03;;;8.57;;
5452;SDS011;2749;53.576;9.822;2023-04-15T14:33:29;10.40;;;9.20;;
5452;SDS011;2749;53.576;9.822;2023-04-15T14:35:55;8.13;;;7.33;;
5452;SDS011;2749;53.576;9.822;2023-04-15T14:38:21;9.40;;;8.47;;
5452;SDS011;2749;53.576;9.822;2023-04-15T14:40:47;10.33;;;9.33;;
5452;SDS011;2749;53.576;9.822;2023-04-15T14:43:13;12.10;;;10.07;;
5452;SDS011;2749;53.576;9.822;2023-04-15T14:45:39;11.30;;;10.20;;
5452;SDS011;2749;53.576;9.822;2023-04-15T14:48:05;11.27;;;10.17;;
5452;SDS011;2749;53.576;9.822;2023-04-15T14:50:33;11.40;;;10.20;;
5452;SDS011;2749;53.576;9.822;2023-04-15T14:52:59;13.77;;;9.87;;
5452;SDS011;2749;53.576;9.822;2023-04-15T14:55:25;11.03;;;9.80;;
5452;SDS011;2749;53.576;9.822;2023-04-15T14:57:51;12.50;;;11.20;;
5452;SDS011;2749;53.576;9.822;2023-04-15T15:00:17;10.90;;;9.80;;
5452;SDS011;2749;53.576;9.822;2023-04-15T15:02:43;10.77;;;9.50;;
5452;SDS011;2749;53.576;9.822;2023-04-15T15:05:11;12.33;;;11.13;;